sensor_id;sensor_type;location;lat;lon;timestamp;pressure;altitude;pressure_sealevel;temperature;humidity
33454;BME280;39400;49.744;7.012;2023-03-16T00:02:25;96143.47;;;0.95;100.00
33454;BME280;39400;49.744;7.012;2023-03-16T00:04:50;96147.31;;;0.94;100.00
33454;BME280;39400;49.744;7.012;2023-03-16T00:07:15;96138.84;;;0.95;100.00
33454;BME280;39400;49.744;7.012;2023-03-16T00:09:41;96151.25;;;0.97;100.00
33454;BME280;39400;49.744;7.012;2023-03-16T00:12:15;96147.16;;;0.90;100.00
33454;BME280;39400;49.744;7.012;2023-03-16T00:14:42;96148.59;;;0.88;100.00
33454;BME280;39400;49.744;7.012;2023-03-16T00:17:08;96144.91;;;0.92;100.00
33454;BME280;39400;49.744;7.012;2023-03-16T00:19:33;96143.97;;;0.88;100.00
33454;BME280;39400;49.744;7.012;2023-03-16T00:21:58;96156.66;;;0.97;100.00
33454;BME280;39400;49.744;7.012;2023-03-16T00:24:23;96158.16;;;0.85;100.00
33454;BME280;39400;49.744;7.012;2023-03-16T00:26:49;96148.63;;;0.79;100.00
33454;BME280;39400;49.744;7.012;2023-03-16T00:29:14;96142.28;;;0.75;100.00
33454;BME280;39400;49.744;7.012;2023-03-16T00:31:41;96135.75;;;0.76;100.00
33454;BME280;39400;49.744;7.012;2023-03-16T00:34:07;96125.25;;;0.75;100.00
33454;BME280;39400;49.744;7.012;2023-03-16T00:36:32;96129.41;;;0.72;100.00
33454;BME280;39400;49.744;7.012;2023-03-16T00:38:58;96127.81;;;0.71;100.00
33454;BME280;39400;49.744;7.012;2023-03-16T00:41:23;96136.41;;;0.73;100.00
33454;BME280;39400;49.744;7.012;2023-03-16T00:43:49;96141.81;;;0.73;100.00
33454;BME280;39400;49.744;7.012;2023-03-16T00:46:16;96149.47;;;0.71;100.00
33454;BME280;39400;49.744;7.012;2023-03-16T00:48:43;96144.06;;;0.71;100.00
33454;BME280;39400;49.744;7.012;2023-03-16T00:51:13;96141.97;;;0.77;100.00
33454;BME280;39400;49.744;7.012;2023-03-16T00:53:40;96133.78;;;0.85;100.00
33454;BME280;39400;49.744;7.012;2023-03-16T00:56:06;96135.38;;;0.86;100.00
33454;BME280;39400;49.744;7.012;2023-03-16T00:58:32;96139.84;;;0.82;100.00
33454;BME280;39400;49.744;7.012;2023-03-16T01:00:57;96147.81;;;0.87;100.00
33454;BME280;39400;49.744;7.012;2023-03-16T01:03:23;96142.13;;;0.80;100.00
33454;BME280;39400;49.744;7.012;2023-03-16T01:05:48;96140.38;;;0.76;100.00
33454;BME280;39400;49.744;7.012;2023-03-16T01:08:13;96126.81;;;0.84;100.00
33454;BME280;39400;49.744;7.012;2023-03-16T01:10:39;96123.97;;;0.72;100.00
33454;BME280;39400;49.744;7.012;2023-03-16T01:13:04;96124.63;;;0.69;100.00
33454;BME280;39400;49.744;7.012;2023-03-16T01:15:30;96121.41;;;0.76;100.00
33454;BME280;39400;49.744;7.012;2023-03-16T01:17:56;96122.41;;;0.71;100.00
33454;BME280;39400;49.744;7.012;2023-03-16T01:20:22;96127.44;;;0.81;100.00
33454;BME280;39400;49.744;7.012;2023-03-16T01:22:48;96119.06;;;0.74;100.00
33454;BME280;39400;49.744;7.012;2023-03-16T01:25:13;96121.56;;;0.79;100.00
33454;BME280;39400;49.744;7.012;2023-03-16T01:27:40;96121.38;;;0.84;100.00
33454;BME280;39400;49.744;7.012;2023-03-16T01:30:06;96122.97;;;0.85;100.00
33454;BME280;39400;49.744;7.012;2023-03-16T01:32:32;96120.59;;;0.84;100.00
33454;BME280;39400;49.744;7.012;2023-03-16T01:34:58;96115.50;;;0.82;100.00
33454;BME280;39400;49.744;7.012;2023-03-16T01:37:24;96114.41;;;0.83;100.00
33454;BME280;39400;49.744;7.012;2023-03-16T01:39:55;96111.63;;;0.92;100.00
33454;BME280;39400;49.744;7.012;2023-03-16T01:42:20;96092.81;;;0.95;100.00
33454;BME280;39400;49.744;7.012;2023-03-16T01:47:17;96089.25;;;1.04;100.00
33454;BME280;39400;49.744;7.012;2023-03-16T01:49:42;96081.94;;;1.04;100.00
33454;BME280;39400;49.744;7.012;2023-03-16T01:52:21;96078.84;;;1.14;100.00
33454;BME280;39400;49.744;7.012;2023-03-16T01:54:52;96069.47;;;1.12;100.00
33454;BME280;39400;49.744;7.012;2023-03-16T01:57:22;96071.53;;;1.15;100.00
33454;BME280;39400;49.744;7.012;2023-03-16T02:02:41;96059.47;;;1.25;100.00
33454;BME280;39400;49.744;7.012;2023-03-16T02:05:17;96060.94;;;1.22;100.00
33454;BME280;39400;49.744;7.012;2023-03-16T02:07:48;96059.16;;;1.26;100.00
33454;BME280;39400;49.744;7.012;2023-03-16T02:10:17;96052.97;;;1.26;100.00
33454;BME280;39400;49.744;7.012;2023-03-16T02:12:44;96053.63;;;1.23;100.00
33454;BME280;39400;49.744;7.012;2023-03-16T02:15:12;96049.19;;;1.18;100.00
33454;BME280;39400;49.744;7.012;2023-03-16T02:17:40;96048.50;;;1.21;100.00
33454;BME280;39400;49.744;7.012;2023-03-16T02:22:57;96044.16;;;1.29;100.00
33454;BME280;39400;49.744;7.012;2023-03-16T02:25:38;96038.88;;;1.32;100.00
33454;BME280;39400;49.744;7.012;2023-03-16T02:30:57;96025.53;;;1.27;100.00
33454;BME280;39400;49.744;7.012;2023-03-16T02:33:24;96017.88;;;1.29;100.00
33454;BME280;39400;49.744;7.012;2023-03-16T02:35:50;96001.63;;;1.29;100.00
33454;BME280;39400;49.744;7.012;2023-03-16T02:38:15;96012.66;;;1.24;100.00
33454;BME280;39400;49.744;7.012;2023-03-16T02:40:56;96008.56;;;1.18;100.00
33454;BME280;39400;49.744;7.012;2023-03-16T02:43:26;96005.53;;;1.19;100.00
33454;BME280;39400;49.744;7.012;2023-03-16T02:46:07;96003.34;;;1.13;100.00
33454;BME280;39400;49.744;7.012;2023-03-16T02:48:50;96008.09;;;1.16;100.00
33454;BME280;39400;49.744;7.012;2023-03-16T02:51:19;96003.03;;;1.14;100.00
33454;BME280;39400;49.744;7.012;2023-03-16T02:53:45;96008.09;;;1.16;100.00
33454;BME280;39400;49.744;7.012;2023-03-16T02:56:10;96006.53;;;1.15;100.00
33454;BME280;39400;49.744;7.012;2023-03-16T02:58:36;96005.59;;;1.11;100.00
33454;BME280;39400;49.744;7.012;2023-03-16T03:01:05;96012.78;;;1.07;100.00
33454;BME280;39400;49.744;7.012;2023-03-16T03:03:32;96008.63;;;1.09;100.00
33454;BME280;39400;49.744;7.012;2023-03-16T03:05:58;96002.44;;;1.09;100.00
33454;BME280;39400;49.744;7.012;2023-03-16T03:08:23;96003.09;;;1.06;100.00
33454;BME280;39400;49.744;7.012;2023-03-16T03:10:49;96006.28;;;1.08;100.00
33454;BME280;39400;49.744;7.012;2023-03-16T03:13:15;96001.78;;;1.12;100.00
33454;BME280;39400;49.744;7.012;2023-03-16T03:15:40;96001.13;;;1.15;100.00
33454;BME280;39400;49.744;7.012;2023-03-16T03:18:08;95987.75;;;1.10;100.00
33454;BME280;39400;49.744;7.012;2023-03-16T03:20:34;95996.34;;;1.12;100.00
33454;BME280;39400;49.744;7.012;2023-03-16T03:22:59;95990.41;;;1.18;100.00
33454;BME280;39400;49.744;7.012;2023-03-16T03:25:25;95996.13;;;1.17;100.00
33454;BME280;39400;49.744;7.012;2023-03-16T03:27:52;95990.41;;;1.18;100.00
33454;BME280;39400;49.744;7.012;2023-03-16T03:30:21;95979.72;;;1.22;100.00
33454;BME280;39400;49.744;7.012;2023-03-16T03:32:47;95987.34;;;1.20;100.00
33454;BME280;39400;49.744;7.012;2023-03-16T03:35:14;95977.19;;;1.17;100.00
33454;BME280;39400;49.744;7.012;2023-03-16T03:37:41;95986.91;;;1.18;100.00
33454;BME280;39400;49.744;7.012;2023-03-16T03:40:15;95973.81;;;1.20;100.00
33454;BME280;39400;49.744;7.012;2023-03-16T03:42:44;95983.72;;;1.16;100.00
33454;BME280;39400;49.744;7.012;2023-03-16T03:45:10;95991.84;;;1.16;100.00
33454;BME280;39400;49.744;7.012;2023-03-16T03:47:36;95995.59;;;1.24;100.00
33454;BME280;39400;49.744;7.012;2023-03-16T03:50:04;95987.34;;;1.20;100.00
33454;BME280;39400;49.744;7.012;2023-03-16T03:52:32;95982.84;;;1.24;100.00
33454;BME280;39400;49.744;7.012;2023-03-16T03:54:58;95988.28;;;1.24;100.00
33454;BME280;39400;49.744;7.012;2023-03-16T03:57:24;95978.09;;;1.21;100.00
33454;BME280;39400;49.744;7.012;2023-03-16T03:59:49;95972.03;;;1.24;100.00
33454;BME280;39400;49.744;7.012;2023-03-16T04:02:35;95979.91;;;1.17;100.00
33454;BME280;39400;49.744;7.012;2023-03-16T04:05:04;95970.06;;;1.12;100.00
33454;BME280;39400;49.744;7.012;2023-03-16T04:07:30;95974.28;;;1.22;100.00
33454;BME280;39400;49.744;7.012;2023-03-16T04:10:00;95977.44;;;1.24;100.00
33454;BME280;39400;49.744;7.012;2023-03-16T04:12:32;95976.09;;;1.18;100.00
33454;BME280;39400;49.744;7.012;2023-03-16T04:14:58;95973.38;;;1.18;100.00
33454;BME280;39400;49.744;7.012;2023-03-16T04:17:29;95973.78;;;1.08;100.00
33454;BME280;39400;49.744;7.012;2023-03-16T04:19:57;95963.13;;;1.03;100.00
33454;BME280;39400;49.744;7.012;2023-03-16T04:22:23;95965.06;;;1.02;100.00
33454;BME280;39400;49.744;7.012;2023-03-16T04:24:49;95957.78;;;1.15;100.00
33454;BME280;39400;49.744;7.012;2023-03-16T04:27:15;95946.84;;;1.11;100.00
33454;BME280;39400;49.744;7.012;2023-03-16T04:29:40;95944.44;;;1.10;100.00
33454;BME280;39400;49.744;7.012;2023-03-16T04:32:06;95933.72;;;1.01;100.00
33454;BME280;39400;49.744;7.012;2023-03-16T04:34:32;95935.75;;;1.04;100.00
33454;BME280;39400;49.744;7.012;2023-03-16T04:37:01;95950.25;;;1.00;100.00
33454;BME280;39400;49.744;7.012;2023-03-16T04:39:27;95950.53;;;1.07;100.00
33454;BME280;39400;49.744;7.012;2023-03-16T04:41:53;95951.41;;;0.99;100.00
33454;BME280;39400;49.744;7.012;2023-03-16T04:44:21;95954.44;;;0.97;100.00
33454;BME280;39400;49.744;7.012;2023-03-16T04:46:48;95955.69;;;1.00;100.00
33454;BME280;39400;49.744;7.012;2023-03-16T04:49:13;95953.63;;;0.97;100.00
33454;BME280;39400;49.744;7.012;2023-03-16T04:51:42;95962.41;;;0.93;100.00
33454;BME280;39400;49.744;7.012;2023-03-16T04:54:11;95958.53;;;0.82;100.00
33454;BME280;39400;49.744;7.012;2023-03-16T04:56:39;95958.59;;;0.94;100.00
33454;BME280;39400;49.744;7.012;2023-03-16T04:59:08;95957.94;;;0.98;100.00
33454;BME280;39400;49.744;7.012;2023-03-16T05:02:00;95959.25;;;0.91;100.00
33454;BME280;39400;49.744;7.012;2023-03-16T05:04:26;95966.72;;;0.94;100.00
33454;BME280;39400;49.744;7.012;2023-03-16T05:06:52;95956.34;;;0.97;100.00
33454;BME280;39400;49.744;7.012;2023-03-16T05:09:21;95968.81;;;0.89;100.00
33454;BME280;39400;49.744;7.012;2023-03-16T05:11:46;95957.28;;;1.01;100.00
33454;BME280;39400;49.744;7.012;2023-03-16T05:14:12;95955.00;;;1.03;100.00
33454;BME280;39400;49.744;7.012;2023-03-16T05:16:51;95963.47;;;1.01;100.00
33454;BME280;39400;49.744;7.012;2023-03-16T05:19:22;95946.44;;;1.01;100.00
33454;BME280;39400;49.744;7.012;2023-03-16T05:21:47;95943.28;;;0.99;100.00
33454;BME280;39400;49.744;7.012;2023-03-16T05:24:12;95949.19;;;1.13;100.00
33454;BME280;39400;49.744;7.012;2023-03-16T05:26:38;95956.47;;;1.00;100.00
33454;BME280;39400;49.744;7.012;2023-03-16T05:29:08;95960.44;;;1.03;100.00
33454;BME280;39400;49.744;7.012;2023-03-16T05:31:33;95958.84;;;1.02;100.00
33454;BME280;39400;49.744;7.012;2023-03-16T05:34:01;95954.69;;;1.04;100.00
33454;BME280;39400;49.744;7.012;2023-03-16T05:36:27;95948.94;;;1.06;100.00
33454;BME280;39400;49.744;7.012;2023-03-16T05:38:57;95947.56;;;1.00;100.00
33454;BME280;39400;49.744;7.012;2023-03-16T05:41:31;95957.53;;;1.08;100.00
33454;BME280;39400;49.744;7.012;2023-03-16T05:44:07;95950.53;;;1.07;100.00
33454;BME280;39400;49.744;7.012;2023-03-16T05:47:02;95948.66;;;1.19;100.00
33454;BME280;39400;49.744;7.012;2023-03-16T05:49:29;95946.78;;;1.32;100.00
33454;BME280;39400;49.744;7.012;2023-03-16T05:51:55;95950.16;;;1.29;100.00
33454;BME280;39400;49.744;7.012;2023-03-16T05:54:21;95941.13;;;1.25;100.00
33454;BME280;39400;49.744;7.012;2023-03-16T05:56:46;95957.16;;;1.30;100.00
33454;BME280;39400;49.744;7.012;2023-03-16T05:59:13;95954.44;;;1.30;100.00
33454;BME280;39400;49.744;7.012;2023-03-16T06:01:39;95945.19;;;1.31;100.00
33454;BME280;39400;49.744;7.012;2023-03-16T06:04:05;95946.78;;;1.32;100.00
33454;BME280;39400;49.744;7.012;2023-03-16T06:06:33;95936.88;;;1.36;100.00
33454;BME280;39400;49.744;7.012;2023-03-16T06:09:05;95946.56;;;1.37;100.00
33454;BME280;39400;49.744;7.012;2023-03-16T06:11:31;95945.44;;;1.38;100.00
33454;BME280;39400;49.744;7.012;2023-03-16T06:13:56;95963.47;;;1.34;100.00
33454;BME280;39400;49.744;7.012;2023-03-16T06:16:22;95952.94;;;1.54;100.00
33454;BME280;39400;49.744;7.012;2023-03-16T06:18:48;95946.63;;;1.62;100.00
33454;BME280;39400;49.744;7.012;2023-03-16T06:21:13;95940.31;;;1.58;100.00
33454;BME280;39400;49.744;7.012;2023-03-16T06:23:39;95939.59;;;1.49;100.00
33454;BME280;39400;49.744;7.012;2023-03-16T06:26:07;95935.09;;;1.53;100.00
33454;BME280;39400;49.744;7.012;2023-03-16T06:28:34;95934.69;;;1.63;100.00
33454;BME280;39400;49.744;7.012;2023-03-16T06:30:59;95922.13;;;1.58;100.00
33454;BME280;39400;49.744;7.012;2023-03-16T06:33:28;95921.69;;;1.69;100.00
33454;BME280;39400;49.744;7.012;2023-03-16T06:35:54;95927.22;;;1.72;100.00
33454;BME280;39400;49.744;7.012;2023-03-16T06:38:28;95913.22;;;1.70;100.00
33454;BME280;39400;49.744;7.012;2023-03-16T06:41:00;95917.28;;;1.76;100.00
33454;BME280;39400;49.744;7.012;2023-03-16T06:43:25;95922.69;;;1.76;100.00
33454;BME280;39400;49.744;7.012;2023-03-16T06:45:51;95920.81;;;1.89;100.00
33454;BME280;39400;49.744;7.012;2023-03-16T06:48:16;95922.38;;;1.90;100.00
33454;BME280;39400;49.744;7.012;2023-03-16T06:50:44;95927.91;;;1.94;100.00
33454;BME280;39400;49.744;7.012;2023-03-16T06:53:10;95922.72;;;2.01;100.00
33454;BME280;39400;49.744;7.012;2023-03-16T06:55:36;95925.22;;;2.06;100.00
33454;BME280;39400;49.744;7.012;2023-03-16T06:58:01;95924.66;;;2.12;100.00
33454;BME280;39400;49.744;7.012;2023-03-16T07:00:27;95930.75;;;2.09;100.00
33454;BME280;39400;49.744;7.012;2023-03-16T07:02:52;95937.63;;;2.31;100.00
33454;BME280;39400;49.744;7.012;2023-03-16T07:05:18;95939.22;;;2.32;100.00
33454;BME280;39400;49.744;7.012;2023-03-16T07:07:45;95951.72;;;2.49;100.00
33454;BME280;39400;49.744;7.012;2023-03-16T07:10:12;95960.69;;;2.50;100.00
33454;BME280;39400;49.744;7.012;2023-03-16T07:12:37;95972.66;;;2.49;100.00
33454;BME280;39400;49.744;7.012;2023-03-16T07:15:03;95969.16;;;2.48;100.00
33454;BME280;39400;49.744;7.012;2023-03-16T07:17:29;95973.34;;;2.58;100.00
33454;BME280;39400;49.744;7.012;2023-03-16T07:19:55;95964.97;;;2.38;100.00
33454;BME280;39400;49.744;7.012;2023-03-16T07:22:20;95964.09;;;2.47;100.00
33454;BME280;39400;49.744;7.012;2023-03-16T07:24:46;95972.44;;;2.54;100.00
33454;BME280;39400;49.744;7.012;2023-03-16T07:27:11;95965.66;;;2.60;100.00
33454;BME280;39400;49.744;7.012;2023-03-16T07:29:36;95953.41;;;2.66;100.00
33454;BME280;39400;49.744;7.012;2023-03-16T07:32:03;95945.25;;;2.66;100.00
33454;BME280;39400;49.744;7.012;2023-03-16T07:34:34;95934.09;;;2.68;100.00
33454;BME280;39400;49.744;7.012;2023-03-16T07:37:00;95944.31;;;2.86;100.00
33454;BME280;39400;49.744;7.012;2023-03-16T07:39:29;95940.19;;;3.05;100.00
33454;BME280;39400;49.744;7.012;2023-03-16T07:42:02;95945.97;;;3.31;100.00
33454;BME280;39400;49.744;7.012;2023-03-16T07:44:57;95956.84;;;3.31;100.00
33454;BME280;39400;49.744;7.012;2023-03-16T07:47:22;95951.19;;;3.24;100.00
33454;BME280;39400;49.744;7.012;2023-03-16T07:49:50;95951.06;;;3.33;100.00
33454;BME280;39400;49.744;7.012;2023-03-16T07:52:15;95955.06;;;3.23;99.74
33454;BME280;39400;49.744;7.012;2023-03-16T07:54:41;95957.31;;;3.21;100.00
33454;BME280;39400;49.744;7.012;2023-03-16T07:57:09;95951.84;;;3.33;100.00
33454;BME280;39400;49.744;7.012;2023-03-16T07:59:39;95952.09;;;3.28;100.00
33454;BME280;39400;49.744;7.012;2023-03-16T08:02:05;95954.22;;;3.35;99.70
33454;BME280;39400;49.744;7.012;2023-03-16T08:04:31;95957.63;;;3.32;100.00
33454;BME280;39400;49.744;7.012;2023-03-16T08:06:58;95970.38;;;3.44;100.00
33454;BME280;39400;49.744;7.012;2023-03-16T08:09:23;95966.69;;;3.52;100.00
33454;BME280;39400;49.744;7.012;2023-03-16T08:11:49;95974.31;;;3.74;100.00
33454;BME280;39400;49.744;7.012;2023-03-16T08:14:14;95965.41;;;3.77;100.00
33454;BME280;39400;49.744;7.012;2023-03-16T08:17:04;95960.63;;;3.87;100.00
33454;BME280;39400;49.744;7.012;2023-03-16T08:19:30;95949.91;;;3.94;100.00
33454;BME280;39400;49.744;7.012;2023-03-16T08:21:58;95961.13;;;3.76;98.82
33454;BME280;39400;49.744;7.012;2023-03-16T08:24:25;95964.38;;;3.66;99.06
33454;BME280;39400;49.744;7.012;2023-03-16T08:26:51;95959.81;;;3.70;99.57
33454;BME280;39400;49.744;7.012;2023-03-16T08:29:17;95956.94;;;3.95;100.00
33454;BME280;39400;49.744;7.012;2023-03-16T08:31:43;95953.09;;;3.96;99.37
33454;BME280;39400;49.744;7.012;2023-03-16T08:34:17;95955.53;;;4.01;98.86
33454;BME280;39400;49.744;7.012;2023-03-16T08:36:43;95947.81;;;4.03;98.44
33454;BME280;39400;49.744;7.012;2023-03-16T08:39:10;95947.28;;;3.97;97.81
33454;BME280;39400;49.744;7.012;2023-03-16T08:41:40;95942.81;;;4.05;97.27
33454;BME280;39400;49.744;7.012;2023-03-16T08:44:09;95935.19;;;4.26;97.95
33454;BME280;39400;49.744;7.012;2023-03-16T08:46:34;95925.47;;;4.45;97.35
33454;BME280;39400;49.744;7.012;2023-03-16T08:49:00;95936.22;;;4.38;97.31
33454;BME280;39400;49.744;7.012;2023-03-16T08:51:25;95944.88;;;4.43;96.12
33454;BME280;39400;49.744;7.012;2023-03-16T08:53:51;95947.97;;;4.42;95.59
33454;BME280;39400;49.744;7.012;2023-03-16T08:56:16;95946.06;;;4.26;96.35
33454;BME280;39400;49.744;7.012;2023-03-16T08:58:42;95952.94;;;4.56;97.24
33454;BME280;39400;49.744;7.012;2023-03-16T09:01:08;95946.56;;;4.48;96.88
33454;BME280;39400;49.744;7.012;2023-03-16T09:03:34;95942.84;;;4.56;95.57
33454;BME280;39400;49.744;7.012;2023-03-16T09:06:02;95936.53;;;4.52;95.50
33454;BME280;39400;49.744;7.012;2023-03-16T09:08:28;95931.09;;;4.52;94.52
33454;BME280;39400;49.744;7.012;2023-03-16T09:11:05;95935.97;;;4.62;96.27
33454;BME280;39400;49.744;7.012;2023-03-16T09:13:31;95933.63;;;4.80;96.55
33454;BME280;39400;49.744;7.012;2023-03-16T09:15:56;95938.56;;;4.74;94.44
33454;BME280;39400;49.744;7.012;2023-03-16T09:18:22;95940.47;;;4.90;95.64
33454;BME280;39400;49.744;7.012;2023-03-16T09:20:48;95938.47;;;5.06;95.21
33454;BME280;39400;49.744;7.012;2023-03-16T09:23:14;95942.75;;;4.88;93.97
33454;BME280;39400;49.744;7.012;2023-03-16T09:25:39;95947.88;;;4.73;93.96
33454;BME280;39400;49.744;7.012;2023-03-16T09:28:05;95944.06;;;4.94;94.74
33454;BME280;39400;49.744;7.012;2023-03-16T09:30:30;95953.50;;;4.81;93.51
33454;BME280;39400;49.744;7.012;2023-03-16T09:32:56;95942.03;;;4.91;95.30
33454;BME280;39400;49.744;7.012;2023-03-16T09:35:21;95946.94;;;5.01;94.92
33454;BME280;39400;49.744;7.012;2023-03-16T09:37:46;95946.34;;;5.11;94.44
33454;BME280;39400;49.744;7.012;2023-03-16T09:40:28;95936.59;;;5.30;95.33
33454;BME280;39400;49.744;7.012;2023-03-16T09:48:33;95966.72;;;5.56;92.96
33454;BME280;39400;49.744;7.012;2023-03-16T09:51:03;95965.22;;;5.59;92.30
33454;BME280;39400;49.744;7.012;2023-03-16T09:53:34;95948.31;;;5.72;92.23
33454;BME280;39400;49.744;7.012;2023-03-16T09:56:09;95949.41;;;5.91;91.86
33454;BME280;39400;49.744;7.012;2023-03-16T09:58:35;95945.84;;;6.06;92.29
33454;BME280;39400;49.744;7.012;2023-03-16T10:06:11;95933.91;;;6.41;89.88
33454;BME280;39400;49.744;7.012;2023-03-16T10:08:43;95932.63;;;6.35;89.21
33454;BME280;39400;49.744;7.012;2023-03-16T10:11:23;95934.00;;;6.48;91.92
33454;BME280;39400;49.744;7.012;2023-03-16T10:16:46;95927.81;;;6.51;88.38
33454;BME280;39400;49.744;7.012;2023-03-16T10:19:38;95928.59;;;6.52;87.73
33454;BME280;39400;49.744;7.012;2023-03-16T10:22:29;95924.03;;;6.59;88.76
33454;BME280;39400;49.744;7.012;2023-03-16T10:27:51;95921.81;;;6.69;87.33
33454;BME280;39400;49.744;7.012;2023-03-16T10:30:21;95928.38;;;6.90;90.07
33454;BME280;39400;49.744;7.012;2023-03-16T10:32:48;95923.59;;;6.84;85.71
33454;BME280;39400;49.744;7.012;2023-03-16T10:38:02;95920.81;;;7.10;84.09
33454;BME280;39400;49.744;7.012;2023-03-16T10:40:31;95920.72;;;7.03;85.34
33454;BME280;39400;49.744;7.012;2023-03-16T10:42:56;95928.38;;;7.21;85.57
33454;BME280;39400;49.744;7.012;2023-03-16T10:45:26;95916.41;;;7.36;84.08
33454;BME280;39400;49.744;7.012;2023-03-16T10:48:22;95921.91;;;7.36;82.90
33454;BME280;39400;49.744;7.012;2023-03-16T10:50:51;95922.84;;;7.51;84.64
33454;BME280;39400;49.744;7.012;2023-03-16T10:53:28;95913.44;;;7.48;80.51
33454;BME280;39400;49.744;7.012;2023-03-16T10:56:09;95919.72;;;7.52;82.46
33454;BME280;39400;49.744;7.012;2023-03-16T10:58:41;95913.94;;;7.61;82.88
33454;BME280;39400;49.744;7.012;2023-03-16T11:01:14;95915.22;;;7.71;82.56
33454;BME280;39400;49.744;7.012;2023-03-16T11:03:41;95917.56;;;7.72;82.53
33454;BME280;39400;49.744;7.012;2023-03-16T11:06:17;95910.69;;;7.89;80.95
33454;BME280;39400;49.744;7.012;2023-03-16T11:08:43;95908.38;;;7.91;77.38
33454;BME280;39400;49.744;7.012;2023-03-16T11:11:13;95903.25;;;7.86;77.03
33454;BME280;39400;49.744;7.012;2023-03-16T11:13:47;95899.84;;;8.00;78.00
33454;BME280;39400;49.744;7.012;2023-03-16T11:18:53;95907.13;;;8.26;72.63
33454;BME280;39400;49.744;7.012;2023-03-16T11:21:37;95910.47;;;8.49;75.68
33454;BME280;39400;49.744;7.012;2023-03-16T11:24:13;95899.50;;;8.49;73.93
33454;BME280;39400;49.744;7.012;2023-03-16T11:26:39;95894.81;;;8.53;74.80
33454;BME280;39400;49.744;7.012;2023-03-16T11:29:10;95889.13;;;8.25;74.38
33454;BME280;39400;49.744;7.012;2023-03-16T11:32:00;95895.53;;;8.43;75.15
33454;BME280;39400;49.744;7.012;2023-03-16T11:34:30;95890.66;;;8.77;77.06
33454;BME280;39400;49.744;7.012;2023-03-16T11:45:26;95880.19;;;8.97;74.32
33454;BME280;39400;49.744;7.012;2023-03-16T11:50:35;95871.63;;;9.10;73.21
33454;BME280;39400;49.744;7.012;2023-03-16T11:58:43;95853.16;;;8.99;74.07
33454;BME280;39400;49.744;7.012;2023-03-16T12:01:23;95855.16;;;9.13;72.79
33454;BME280;39400;49.744;7.012;2023-03-16T12:12:40;95855.94;;;9.14;74.17
33454;BME280;39400;49.744;7.012;2023-03-16T12:15:20;95842.97;;;9.03;73.83
33454;BME280;39400;49.744;7.012;2023-03-16T12:17:49;95841.00;;;9.00;72.79
33454;BME280;39400;49.744;7.012;2023-03-16T12:20:21;95847.25;;;8.90;73.62
33454;BME280;39400;49.744;7.012;2023-03-16T12:22:56;95835.94;;;9.02;75.37
33454;BME280;39400;49.744;7.012;2023-03-16T12:25:31;95843.47;;;9.38;70.49
33454;BME280;39400;49.744;7.012;2023-03-16T12:27:59;95831.38;;;9.46;72.12
33454;BME280;39400;49.744;7.012;2023-03-16T12:30:49;95814.50;;;9.58;73.65
33454;BME280;39400;49.744;7.012;2023-03-16T12:33:20;95819.22;;;9.79;73.53
33454;BME280;39400;49.744;7.012;2023-03-16T12:35:57;95819.63;;;10.10;72.40
33454;BME280;39400;49.744;7.012;2023-03-16T12:38:37;95810.63;;;9.98;71.97
33454;BME280;39400;49.744;7.012;2023-03-16T12:41:18;95814.53;;;9.76;71.52
33454;BME280;39400;49.744;7.012;2023-03-16T12:44:08;95815.72;;;9.68;70.35
33454;BME280;39400;49.744;7.012;2023-03-16T12:46:55;95804.31;;;9.80;70.43
33454;BME280;39400;49.744;7.012;2023-03-16T12:49:24;95797.25;;;10.11;70.90
33454;BME280;39400;49.744;7.012;2023-03-16T12:52:01;95798.03;;;10.19;70.51
33454;BME280;39400;49.744;7.012;2023-03-16T12:54:27;95791.78;;;10.29;70.19
33454;BME280;39400;49.744;7.012;2023-03-16T12:57:01;95793.72;;;10.14;69.90
33454;BME280;39400;49.744;7.012;2023-03-16T12:59:41;95783.91;;;10.17;69.44
33454;BME280;39400;49.744;7.012;2023-03-16T13:04:43;95786.25;;;10.22;68.21
33454;BME280;39400;49.744;7.012;2023-03-16T13:07:16;95776.84;;;10.34;66.78
33454;BME280;39400;49.744;7.012;2023-03-16T13:09:46;95775.28;;;10.22;66.84
33454;BME280;39400;49.744;7.012;2023-03-16T13:12:29;95776.44;;;10.28;66.31
33454;BME280;39400;49.744;7.012;2023-03-16T13:14:55;95781.16;;;10.31;65.77
33454;BME280;39400;49.744;7.012;2023-03-16T13:17:24;95780.00;;;10.04;64.25
33454;BME280;39400;49.744;7.012;2023-03-16T13:22:47;95776.81;;;10.44;66.27
33454;BME280;39400;49.744;7.012;2023-03-16T13:25:56;95780.59;;;10.86;66.40
33454;BME280;39400;49.744;7.012;2023-03-16T13:28:05;95780.47;;;11.08;67.23
33454;BME280;39400;49.744;7.012;2023-03-16T13:30:45;95774.91;;;11.22;67.08
33454;BME280;39400;49.744;7.012;2023-03-16T13:33:17;95763.16;;;11.14;65.67
33454;BME280;39400;49.744;7.012;2023-03-16T13:35:44;95768.00;;;10.92;65.25
33454;BME280;39400;49.744;7.012;2023-03-16T13:38:14;95771.94;;;10.91;66.02
33454;BME280;39400;49.744;7.012;2023-03-16T13:40:49;95759.75;;;10.92;63.80
33454;BME280;39400;49.744;7.012;2023-03-16T13:43:16;95757.81;;;10.86;65.33
33454;BME280;39400;49.744;7.012;2023-03-16T13:45:42;95765.78;;;10.59;63.18
33454;BME280;39400;49.744;7.012;2023-03-16T13:48:15;95757.13;;;10.64;63.59
33454;BME280;39400;49.744;7.012;2023-03-16T13:50:41;95757.50;;;10.62;63.69
33454;BME280;39400;49.744;7.012;2023-03-16T13:53:26;95753.91;;;10.76;64.43
33454;BME280;39400;49.744;7.012;2023-03-16T13:55:52;95753.78;;;11.05;64.82
33454;BME280;39400;49.744;7.012;2023-03-16T13:58:29;95753.19;;;10.65;62.32
33454;BME280;39400;49.744;7.012;2023-03-16T14:01:00;95746.94;;;10.57;61.31
33454;BME280;39400;49.744;7.012;2023-03-16T14:03:34;95748.00;;;10.81;60.50
33454;BME280;39400;49.744;7.012;2023-03-16T14:06:00;95736.91;;;11.03;62.38
33454;BME280;39400;49.744;7.012;2023-03-16T14:08:26;95735.47;;;11.43;61.49
33454;BME280;39400;49.744;7.012;2023-03-16T14:10:53;95725.97;;;11.51;62.08
33454;BME280;39400;49.744;7.012;2023-03-16T14:16:23;95719.44;;;11.27;58.30
33454;BME280;39400;49.744;7.012;2023-03-16T14:19:00;95715.34;;;11.50;59.82
33454;BME280;39400;49.744;7.012;2023-03-16T14:21:28;95726.69;;;11.59;60.49